AFR604 TFFR-TFFF
Flight info
| Callsign | AFR604 |
|---|---|
| Flight time | 0h 25m |
| Altitude | 13000 |
| Route | KATIM2F KATIM KATIM2D |
| Aircraft | A320/M-SDE2E3FGIJ1RWY/HB1 |
Departure
| Time | 2026-04-29 09:01 |
|---|---|
| Airport | Maryse Condé International Airport (TFFR) |
Arrival
| Time | 2026-04-29 09:27 |
|---|---|
| Airport | Martinique Aimé Césaire International Airport (TFFF) |
| Time | Latitude | Longitude | Altitude | Speed | Heading |
|---|---|---|---|---|---|
| 2026-04-29 08:37 | 16.26980 | -61.52994 | 21 ft | 0 kts | 150° |
| 2026-04-29 08:54 | 16.26973 | -61.52999 | 21 ft | 2 kts | 214° |
| 2026-04-29 08:54 | 16.26963 | -61.53008 | 23 ft | 2 kts | 219° |
| 2026-04-29 08:55 | 16.26956 | -61.53012 | 22 ft | 1 kts | 206° |
| 2026-04-29 08:55 | 16.26924 | -61.53011 | 21 ft | 11 kts | 168° |
| 2026-04-29 08:55 | 16.26857 | -61.52938 | 23 ft | 16 kts | 133° |
| 2026-04-29 08:55 | 16.26767 | -61.52948 | 22 ft | 15 kts | 189° |
| 2026-04-29 08:56 | 16.26655 | -61.52968 | 21 ft | 6 kts | 190° |
| 2026-04-29 08:56 | 16.26654 | -61.52968 | 21 ft | 0 kts | 190° |
| 2026-04-29 08:56 | 16.26620 | -61.52975 | 21 ft | 13 kts | 191° |
| 2026-04-29 08:57 | 16.26514 | -61.53025 | 20 ft | 17 kts | 257° |
| 2026-04-29 08:57 | 16.26523 | -61.53142 | 21 ft | 16 kts | 280° |
| 2026-04-29 08:57 | 16.26547 | -61.53271 | 19 ft | 21 kts | 282° |
| 2026-04-29 08:57 | 16.26583 | -61.53435 | 21 ft | 25 kts | 279° |
| 2026-04-29 08:58 | 16.26614 | -61.53623 | 23 ft | 28 kts | 281° |
| 2026-04-29 08:58 | 16.26653 | -61.53837 | 19 ft | 29 kts | 280° |
| 2026-04-29 08:58 | 16.26691 | -61.54048 | 18 ft | 30 kts | 281° |
| 2026-04-29 08:58 | 16.26728 | -61.54249 | 15 ft | 22 kts | 281° |
| 2026-04-29 08:59 | 16.26719 | -61.54377 | 13 ft | 14 kts | 241° |
| 2026-04-29 08:59 | 16.26732 | -61.54413 | 15 ft | 2 kts | 15° |
| 2026-04-29 08:59 | 16.26750 | -61.54404 | 14 ft | 4 kts | 37° |
| 2026-04-29 08:59 | 16.26752 | -61.54392 | 14 ft | 0 kts | 98° |
| 2026-04-29 09:00 | 16.26700 | -61.54105 | 17 ft | 78 kts | 101° |
| 2026-04-29 09:01 | 16.26558 | -61.53333 | 19 ft | 138 kts | 101° |
| 2026-04-29 09:01 | 16.26350 | -61.52209 | 210 ft | 167 kts | 101° |
| 2026-04-29 09:01 | 16.26128 | -61.51006 | 800 ft | 172 kts | 99° |
| 2026-04-29 09:01 | 16.25903 | -61.49789 | 1545 ft | 170 kts | 101° |
| 2026-04-29 09:02 | 16.25681 | -61.48608 | 2246 ft | 167 kts | 100° |
| 2026-04-29 09:02 | 16.25459 | -61.47414 | 2875 ft | 165 kts | 99° |
| 2026-04-29 09:02 | 16.25242 | -61.46249 | 3432 ft | 172 kts | 101° |
| 2026-04-29 09:02 | 16.25002 | -61.44944 | 3740 ft | 195 kts | 100° |
| 2026-04-29 09:03 | 16.24731 | -61.43468 | 4055 ft | 220 kts | 101° |
| 2026-04-29 09:03 | 16.24179 | -61.41904 | 4416 ft | 245 kts | 127° |
| 2026-04-29 09:03 | 16.22732 | -61.40891 | 5019 ft | 263 kts | 163° |
| 2026-04-29 09:03 | 16.20871 | -61.40724 | 5797 ft | 275 kts | 179° |
| 2026-04-29 09:04 | 16.18950 | -61.40905 | 6590 ft | 280 kts | 184° |
| 2026-04-29 09:04 | 16.16997 | -61.41150 | 7339 ft | 284 kts | 183° |
| 2026-04-29 09:04 | 16.15015 | -61.41342 | 8096 ft | 288 kts | 181° |
| 2026-04-29 09:04 | 16.13006 | -61.41454 | 8848 ft | 291 kts | 179° |
| 2026-04-29 09:05 | 16.10968 | -61.41497 | 9587 ft | 294 kts | 178° |
| 2026-04-29 09:05 | 16.08905 | -61.41493 | 10242 ft | 301 kts | 177° |
| 2026-04-29 09:05 | 16.06731 | -61.41457 | 10434 ft | 324 kts | 177° |
| 2026-04-29 09:05 | 16.04414 | -61.41404 | 10775 ft | 339 kts | 178° |
| 2026-04-29 09:06 | 16.02034 | -61.41347 | 11348 ft | 345 kts | 177° |
| 2026-04-29 09:06 | 15.99622 | -61.41293 | 11987 ft | 349 kts | 178° |
| 2026-04-29 09:06 | 15.97186 | -61.41247 | 12626 ft | 352 kts | 179° |
| 2026-04-29 09:06 | 15.94721 | -61.41214 | 12896 ft | 355 kts | 179° |
| 2026-04-29 09:07 | 15.92262 | -61.41186 | 12968 ft | 350 kts | 179° |
| 2026-04-29 09:07 | 15.89843 | -61.41161 | 12975 ft | 346 kts | 179° |
| 2026-04-29 09:07 | 15.87436 | -61.41134 | 12978 ft | 346 kts | 179° |
| 2026-04-29 09:07 | 15.85033 | -61.41106 | 12978 ft | 345 kts | 179° |
| 2026-04-29 09:08 | 15.82631 | -61.41079 | 12976 ft | 345 kts | 179° |
| 2026-04-29 09:08 | 15.80230 | -61.41051 | 12975 ft | 345 kts | 179° |
| 2026-04-29 09:08 | 15.77828 | -61.41021 | 12975 ft | 345 kts | 179° |
| 2026-04-29 09:08 | 15.75426 | -61.40992 | 12975 ft | 345 kts | 179° |
| 2026-04-29 09:09 | 15.73027 | -61.40963 | 12978 ft | 345 kts | 179° |
| 2026-04-29 09:09 | 15.70626 | -61.40937 | 12979 ft | 345 kts | 179° |
| 2026-04-29 09:09 | 15.68223 | -61.40912 | 12978 ft | 345 kts | 179° |
| 2026-04-29 09:09 | 15.65823 | -61.40884 | 12980 ft | 345 kts | 179° |
| 2026-04-29 09:10 | 15.63452 | -61.40853 | 12978 ft | 345 kts | 179° |
| 2026-04-29 09:10 | 15.61051 | -61.40820 | 12976 ft | 345 kts | 179° |
| 2026-04-29 09:10 | 15.58651 | -61.40787 | 12975 ft | 345 kts | 179° |
| 2026-04-29 09:10 | 15.56249 | -61.40759 | 12979 ft | 345 kts | 179° |
| 2026-04-29 09:11 | 15.53847 | -61.40732 | 12984 ft | 345 kts | 179° |
| 2026-04-29 09:11 | 15.51447 | -61.40705 | 12986 ft | 345 kts | 179° |
| 2026-04-29 09:11 | 15.49048 | -61.40677 | 12985 ft | 345 kts | 179° |
| 2026-04-29 09:11 | 15.46647 | -61.40648 | 12982 ft | 345 kts | 179° |
| 2026-04-29 09:12 | 15.45027 | -61.40627 | 12977 ft | 345 kts | 179° |
| 2026-04-29 09:12 | 15.42627 | -61.40598 | 12984 ft | 345 kts | 179° |
| 2026-04-29 09:12 | 15.40227 | -61.40566 | 12982 ft | 345 kts | 178° |
| 2026-04-29 09:12 | 15.37852 | -61.40272 | 12986 ft | 344 kts | 169° |
| 2026-04-29 09:13 | 15.35527 | -61.39840 | 12984 ft | 344 kts | 169° |
| 2026-04-29 09:13 | 15.33168 | -61.39406 | 12983 ft | 344 kts | 169° |
| 2026-04-29 09:13 | 15.30813 | -61.38973 | 12980 ft | 344 kts | 169° |
| 2026-04-29 09:13 | 15.28456 | -61.38538 | 12983 ft | 344 kts | 169° |
| 2026-04-29 09:14 | 15.26098 | -61.38102 | 12983 ft | 344 kts | 169° |
| 2026-04-29 09:14 | 15.23742 | -61.37667 | 12983 ft | 344 kts | 169° |
| 2026-04-29 09:14 | 15.21388 | -61.37235 | 12979 ft | 344 kts | 169° |
| 2026-04-29 09:14 | 15.19031 | -61.36803 | 12983 ft | 344 kts | 169° |
| 2026-04-29 09:15 | 15.16675 | -61.36371 | 12980 ft | 344 kts | 169° |
| 2026-04-29 09:15 | 15.14319 | -61.35939 | 12979 ft | 344 kts | 169° |
| 2026-04-29 09:15 | 15.11964 | -61.35507 | 12978 ft | 344 kts | 169° |
| 2026-04-29 09:15 | 15.09611 | -61.35073 | 12977 ft | 343 kts | 169° |
| 2026-04-29 09:16 | 15.07288 | -61.34646 | 12704 ft | 336 kts | 169° |
| 2026-04-29 09:16 | 15.04994 | -61.34225 | 12299 ft | 334 kts | 169° |
| 2026-04-29 09:16 | 15.02718 | -61.33807 | 11884 ft | 331 kts | 168° |
| 2026-04-29 09:16 | 15.00493 | -61.33400 | 11614 ft | 315 kts | 168° |
| 2026-04-29 09:17 | 14.98378 | -61.33015 | 11163 ft | 305 kts | 168° |
| 2026-04-29 09:17 | 14.96317 | -61.32639 | 10713 ft | 296 kts | 168° |
| 2026-04-29 09:17 | 14.94306 | -61.32271 | 10322 ft | 293 kts | 168° |
| 2026-04-29 09:17 | 14.92295 | -61.31901 | 9928 ft | 294 kts | 168° |
| 2026-04-29 09:18 | 14.90278 | -61.31532 | 9506 ft | 294 kts | 168° |
| 2026-04-29 09:18 | 14.88264 | -61.31163 | 9104 ft | 294 kts | 168° |
| 2026-04-29 09:18 | 14.86256 | -61.30797 | 8721 ft | 292 kts | 168° |
| 2026-04-29 09:18 | 14.84260 | -61.30432 | 8326 ft | 291 kts | 167° |
| 2026-04-29 09:19 | 14.82327 | -61.29873 | 7916 ft | 288 kts | 159° |
| 2026-04-29 09:19 | 14.80431 | -61.29207 | 7517 ft | 287 kts | 159° |
| 2026-04-29 09:19 | 14.78574 | -61.28560 | 7126 ft | 286 kts | 159° |
| 2026-04-29 09:19 | 14.76722 | -61.27919 | 6686 ft | 276 kts | 159° |
| 2026-04-29 09:20 | 14.74933 | -61.27304 | 6267 ft | 267 kts | 159° |
| 2026-04-29 09:20 | 14.73166 | -61.26694 | 5839 ft | 268 kts | 158° |
| 2026-04-29 09:20 | 14.71403 | -61.26083 | 5427 ft | 267 kts | 158° |
| 2026-04-29 09:20 | 14.69641 | -61.25473 | 5011 ft | 267 kts | 159° |
| 2026-04-29 09:21 | 14.67883 | -61.24864 | 4595 ft | 267 kts | 158° |
| 2026-04-29 09:21 | 14.66128 | -61.24255 | 4241 ft | 263 kts | 158° |
| 2026-04-29 09:21 | 14.64446 | -61.23673 | 4181 ft | 247 kts | 158° |
| 2026-04-29 09:21 | 14.62862 | -61.23127 | 4088 ft | 233 kts | 157° |
| 2026-04-29 09:22 | 14.61353 | -61.22606 | 3987 ft | 226 kts | 158° |
| 2026-04-29 09:22 | 14.59872 | -61.22093 | 3890 ft | 224 kts | 158° |
| 2026-04-29 09:22 | 14.58396 | -61.21581 | 3794 ft | 223 kts | 157° |
| 2026-04-29 09:22 | 14.57042 | -61.20860 | 3699 ft | 218 kts | 134° |
| 2026-04-29 09:23 | 14.56175 | -61.19601 | 3366 ft | 217 kts | 106° |
| 2026-04-29 09:23 | 14.56043 | -61.18106 | 3059 ft | 209 kts | 82° |
| 2026-04-29 09:23 | 14.56297 | -61.16625 | 2782 ft | 210 kts | 80° |
| 2026-04-29 09:23 | 14.56556 | -61.15146 | 2511 ft | 210 kts | 81° |
| 2026-04-29 09:24 | 14.56814 | -61.13657 | 2238 ft | 210 kts | 81° |
| 2026-04-29 09:24 | 14.57067 | -61.12185 | 1968 ft | 204 kts | 81° |
| 2026-04-29 09:24 | 14.57309 | -61.10785 | 1704 ft | 193 kts | 82° |
| 2026-04-29 09:24 | 14.57538 | -61.09449 | 1480 ft | 184 kts | 81° |
| 2026-04-29 09:25 | 14.57751 | -61.08214 | 1238 ft | 171 kts | 82° |
| 2026-04-29 09:25 | 14.57951 | -61.07049 | 1016 ft | 159 kts | 81° |
| 2026-04-29 09:25 | 14.58135 | -61.05979 | 856 ft | 144 kts | 82° |
| 2026-04-29 09:25 | 14.58306 | -61.04983 | 655 ft | 140 kts | 82° |
| 2026-04-29 09:26 | 14.58475 | -61.03994 | 461 ft | 137 kts | 82° |
| 2026-04-29 09:26 | 14.58648 | -61.03027 | 298 ft | 136 kts | 81° |
| 2026-04-29 09:26 | 14.58814 | -61.02065 | 107 ft | 137 kts | 82° |
| 2026-04-29 09:26 | 14.58966 | -61.01136 | 24 ft | 117 kts | 80° |
| 2026-04-29 09:27 | 14.59075 | -61.00501 | 14 ft | 65 kts | 80° |
| 2026-04-29 09:27 | 14.59130 | -61.00168 | 15 ft | 29 kts | 80° |
| 2026-04-29 09:27 | 14.59163 | -61.00025 | 17 ft | 11 kts | 36° |
| 2026-04-29 09:27 | 14.59218 | -61.00026 | 19 ft | 7 kts | 354° |
| 2026-04-29 09:28 | 14.59258 | -61.00033 | 19 ft | 5 kts | 350° |
| 2026-04-29 09:28 | 14.59272 | -61.00036 | 19 ft | 0 kts | 349° |
| 2026-04-29 09:31 | 14.59278 | -61.00037 | 19 ft | 1 kts | 349° |
| 2026-04-29 09:31 | 14.59282 | -61.00038 | 19 ft | 1 kts | 349° |
| 2026-04-29 09:31 | 14.59285 | -61.00038 | 19 ft | 0 kts | 349° |
| 2026-04-29 09:31 | 14.59290 | -61.00039 | 19 ft | 2 kts | 349° |
| 2026-04-29 09:32 | 14.59324 | -61.00041 | 21 ft | 7 kts | 7° |
| 2026-04-29 09:32 | 14.59355 | -61.00011 | 18 ft | 6 kts | 74° |
| 2026-04-29 09:32 | 14.59362 | -60.99971 | 18 ft | 6 kts | 79° |
| 2026-04-29 09:32 | 14.59370 | -60.99932 | 19 ft | 2 kts | 79° |
| 2026-04-29 09:33 | 14.59373 | -60.99919 | 19 ft | 1 kts | 66° |
| 2026-04-29 09:33 | 14.59376 | -60.99919 | 19 ft | 0 kts | 31° |
| 2026-04-29 09:33 | 14.59394 | -60.99917 | 18 ft | 3 kts | 6° |
| 2026-04-29 09:33 | 14.59417 | -60.99916 | 18 ft | 4 kts | 2° |
| 2026-04-29 09:34 | 14.59423 | -60.99908 | 18 ft | 0 kts | 68° |
| 2026-04-29 09:34 | 14.59423 | -60.99905 | 18 ft | 1 kts | 79° |
| 2026-04-29 09:34 | 14.59422 | -60.99904 | 20 ft | 0 kts | 88° |
| 2026-04-29 09:34 | 14.59422 | -60.99903 | 20 ft | 1 kts | 91° |
| 2026-04-29 09:35 | 14.59422 | -60.99900 | 20 ft | 0 kts | 94° |
| 2026-04-29 09:35 | 14.59422 | -60.99899 | 20 ft | 0 kts | 94° |